Time;durP1;ratioP1;P1;durP2;ratioP2;P2;SDS_P1;SDS_P2;PMS_P1;PMS_P2;Temp;Humidity;BMP_temperature;BMP_pressure;BME280_temperature;BME280_humidity;BME280_pressure;Samples;Min_cycle;Max_cycle;Signal;HPM_P1;HPM_P2
2022/04/14 00:02:36;;;;;;;2.47;1.90;;;11.70;99.90;;;;;;5043297;28;20202;-53
2022/04/14 00:05:21;;;;;;;2.13;2.03;;;11.70;99.90;;;;;;5041318;28;20337;-58
2022/04/14 00:08:05;;;;;;;2.90;2.10;;;11.70;99.90;;;;;;5042347;28;20225;-58
2022/04/14 00:10:50;;;;;;;3.23;2.47;;;11.60;99.90;;;;;;5042829;28;20213;-55
2022/04/14 00:13:34;;;;;;;2.87;2.10;;;11.60;99.90;;;;;;5041171;28;20222;-56
2022/04/14 00:16:19;;;;;;;3.97;2.43;;;11.50;99.90;;;;;;5043523;28;20242;-53
2022/04/14 00:19:04;;;;;;;4.67;2.23;;;11.50;99.90;;;;;;5042021;28;20194;-59
2022/04/14 00:21:48;;;;;;;3.47;2.23;;;11.50;99.90;;;;;;5042347;28;20201;-52
2022/04/14 00:24:33;;;;;;;3.90;2.27;;;11.50;99.90;;;;;;5042692;28;20193;-55
2022/04/14 00:27:18;;;;;;;2.47;2.07;;;11.40;99.90;;;;;;5040977;28;20248;-60
2022/04/14 00:30:03;;;;;;;2.23;1.73;;;11.40;99.90;;;;;;5042259;28;20186;-53
2022/04/14 00:32:48;;;;;;;2.30;2.00;;;11.40;99.90;;;;;;5042301;28;20241;-58
2022/04/14 00:35:32;;;;;;;1.83;1.73;;;11.30;99.90;;;;;;5041154;28;20222;-58
2022/04/14 00:38:17;;;;;;;3.53;2.17;;;11.40;99.90;;;;;;5042977;28;20197;-57
2022/04/14 00:41:01;;;;;;;2.50;2.10;;;11.30;99.90;;;;;;5041756;28;20250;-52
2022/04/14 00:43:52;;;;;;;1.70;1.60;;;11.20;99.90;;;;;;5041010;28;20194;-57
2022/04/14 00:46:36;;;;;;;6.10;2.17;;;11.20;99.90;;;;;;5043125;28;20257;-58
2022/04/14 00:49:20;;;;;;;2.13;1.83;;;11.20;99.90;;;;;;5041655;28;20225;-55
2022/04/14 00:52:05;;;;;;;2.30;2.10;;;11.10;99.90;;;;;;5041941;28;20222;-61
2022/04/14 00:54:50;;;;;;;1.90;1.80;;;11.00;99.90;;;;;;5042662;28;20190;-55
2022/04/14 00:57:35;;;;;;;2.03;1.90;;;10.90;99.90;;;;;;5041550;28;20306;-58
2022/04/14 01:00:19;;;;;;;3.23;2.40;;;11.00;99.90;;;;;;5042578;28;20190;-49
2022/04/14 01:03:04;;;;;;;4.03;2.30;;;10.90;99.90;;;;;;5042459;28;20379;-59
2022/04/14 01:05:49;;;;;;;3.00;1.97;;;10.90;99.90;;;;;;5041255;28;20206;-59
2022/04/14 01:08:34;;;;;;;2.27;2.07;;;10.90;99.90;;;;;;5043019;28;20190;-53
2022/04/14 01:11:18;;;;;;;5.43;2.10;;;10.90;99.90;;;;;;5042150;28;20190;-52
2022/04/14 01:14:03;;;;;;;2.17;2.00;;;10.80;99.90;;;;;;5041234;28;20206;-54
2022/04/14 01:16:47;;;;;;;3.37;2.47;;;10.80;99.90;;;;;;5043086;28;20238;-63
2022/04/14 01:19:33;;;;;;;3.57;2.27;;;10.80;99.90;;;;;;5041779;28;20209;-60
2022/04/14 01:22:24;;;;;;;3.00;2.10;;;10.80;99.90;;;;;;5042016;28;20205;-60
2022/04/14 01:25:08;;;;;;;4.33;2.20;;;10.80;99.90;;;;;;5043081;28;20209;-61
2022/04/14 01:27:53;;;;;;;2.40;2.20;;;10.80;99.90;;;;;;5041620;28;20205;-61
2022/04/14 01:30:38;;;;;;;2.53;2.00;;;10.80;99.90;;;;;;5041644;28;20216;-58
2022/04/14 01:33:22;;;;;;;2.10;1.90;;;10.80;99.90;;;;;;5042513;28;20239;-52
2022/04/14 01:36:07;;;;;;;5.53;1.93;;;10.70;99.90;;;;;;5041157;28;20303;-62
2022/04/14 01:38:52;;;;;;;3.90;2.07;;;10.70;99.90;;;;;;5042721;28;20217;-56
2022/04/14 01:41:38;;;;;;;2.70;2.50;;;10.60;99.90;;;;;;5042134;28;20268;-59
2022/04/14 01:44:22;;;;;;;2.80;2.13;;;10.60;99.90;;;;;;5041782;28;20186;-58
2022/04/14 01:47:07;;;;;;;2.37;1.80;;;10.40;99.90;;;;;;5042868;28;20201;-59
2022/04/14 01:49:52;;;;;;;2.80;1.90;;;10.40;99.90;;;;;;5041677;28;20190;-52
2022/04/14 01:52:36;;;;;;;3.63;2.00;;;10.30;99.90;;;;;;5041293;28;20222;-55
2022/04/14 01:55:21;;;;;;;2.30;2.10;;;10.30;99.90;;;;;;5043120;28;20241;-62
2022/04/14 01:58:05;;;;;;;5.97;2.67;;;10.20;99.90;;;;;;5041035;28;20341;-56
2022/04/14 02:00:50;;;;;;;1.63;1.63;;;10.10;99.90;;;;;;5041843;28;20214;-63
2022/04/14 02:03:34;;;;;;;2.03;1.83;;;10.10;99.90;;;;;;5043167;28;20241;-58
2022/04/14 02:06:19;;;;;;;2.47;2.20;;;10.10;99.90;;;;;;5040693;28;20202;-54
2022/04/14 02:09:04;;;;;;;2.20;2.10;;;10.10;99.90;;;;;;5042424;28;20257;-63
2022/04/14 02:11:48;;;;;;;2.00;1.77;;;10.10;99.90;;;;;;5041778;28;20221;-57
2022/04/14 02:14:33;;;;;;;2.43;1.87;;;10.10;99.90;;;;;;5040704;28;20194;-56
2022/04/14 02:17:17;;;;;;;3.07;2.27;;;10.10;99.90;;;;;;5042636;28;20356;-63
2022/04/14 02:20:01;;;;;;;3.03;2.47;;;10.10;99.90;;;;;;5041510;28;20198;-62
2022/04/14 02:22:46;;;;;;;1.80;1.70;;;10.10;99.90;;;;;;5041870;28;20668;-59
2022/04/14 02:25:31;;;;;;;2.37;2.17;;;10.10;99.90;;;;;;5042432;28;20182;-57
2022/04/14 02:28:15;;;;;;;2.13;1.80;;;10.10;99.90;;;;;;5040723;28;20266;-57
2022/04/14 02:31:00;;;;;;;2.00;1.90;;;10.00;99.90;;;;;;5042802;28;20221;-61
2022/04/14 02:33:44;;;;;;;3.13;2.03;;;10.00;99.90;;;;;;5044801;28;20193;-57
2022/04/14 02:36:29;;;;;;;1.47;1.40;;;10.10;99.90;;;;;;5044513;28;20234;-63
2022/04/14 02:39:13;;;;;;;2.37;2.17;;;10.00;99.90;;;;;;5045912;28;20194;-60
2022/04/14 02:41:58;;;;;;;30.73;11.43;;;9.90;99.90;;;;;;5045280;28;20246;-54
2022/04/14 02:44:42;;;;;;;4.97;2.67;;;9.90;99.90;;;;;;5043907;28;20275;-52
2022/04/14 02:47:27;;;;;;;2.23;1.90;;;9.90;99.90;;;;;;5045960;28;20194;-56
2022/04/14 02:50:11;;;;;;;2.17;2.03;;;9.90;99.90;;;;;;5043868;28;20226;-60
2022/04/14 02:52:56;;;;;;;2.07;1.83;;;9.90;99.90;;;;;;5044514;28;20202;-57
2022/04/14 02:55:41;;;;;;;1.90;1.80;;;9.90;99.90;;;;;;5045255;28;20198;-55
2022/04/14 02:58:26;;;;;;;1.93;1.80;;;9.80;99.90;;;;;;5043964;28;20190;-52
2022/04/14 03:01:10;;;;;;;1.83;1.60;;;9.80;99.90;;;;;;5044972;28;20225;-64
2022/04/14 03:03:55;;;;;;;2.87;1.97;;;9.90;99.90;;;;;;5044442;28;20186;-56
2022/04/14 03:06:39;;;;;;;5.20;2.60;;;9.80;99.90;;;;;;5043656;28;20202;-57
2022/04/14 03:09:24;;;;;;;3.47;1.97;;;9.70;99.90;;;;;;5045285;28;20213;-58
2022/04/14 03:12:09;;;;;;;6.07;4.17;;;9.60;99.90;;;;;;5044638;28;20191;-52
2022/04/14 03:14:53;;;;;;;2.70;2.20;;;9.50;99.90;;;;;;5043139;28;20202;-57
2022/04/14 03:17:38;;;;;;;2.73;2.30;;;9.40;99.90;;;;;;5045629;28;20242;-62
2022/04/14 03:20:22;;;;;;;2.37;1.70;;;9.40;99.90;;;;;;5043914;28;20206;-56
2022/04/14 03:23:07;;;;;;;2.43;2.23;;;9.40;99.90;;;;;;5044178;28;20284;-51
2022/04/14 03:25:52;;;;;;;1.93;1.83;;;9.40;99.90;;;;;;5044614;28;20202;-58
2022/04/14 03:28:36;;;;;;;2.13;2.00;;;9.30;99.90;;;;;;5043042;28;20209;-59
2022/04/14 03:31:21;;;;;;;2.20;2.00;;;9.30;99.90;;;;;;5044723;28;20198;-51
2022/04/14 03:34:05;;;;;;;2.00;1.90;;;9.30;99.90;;;;;;5044588;28;20245;-53
2022/04/14 03:36:49;;;;;;;2.77;2.47;;;9.40;99.90;;;;;;5042954;28;20225;-54
2022/04/14 03:39:33;;;;;;;33.50;12.63;;;9.50;99.90;;;;;;5044616;28;20202;-54
2022/04/14 03:42:17;;;;;;;2.77;2.07;;;9.50;99.90;;;;;;5042705;28;20271;-53
2022/04/14 03:45:05;;;;;;;1.83;1.73;;;9.40;99.90;;;;;;5043612;28;20205;-51
2022/04/14 03:47:50;;;;;;;2.00;1.90;;;9.40;99.90;;;;;;5044805;28;20190;-53
2022/04/14 03:50:35;;;;;;;4.13;2.10;;;9.40;99.90;;;;;;5043246;28;20242;-57
2022/04/14 03:53:19;;;;;;;113.57;37.93;;;9.30;99.90;;;;;;5044077;28;20258;-58
2022/04/14 03:56:04;;;;;;;7.13;3.50;;;9.30;99.90;;;;;;5043910;28;20202;-56
2022/04/14 03:58:48;;;;;;;2.27;2.17;;;9.40;99.90;;;;;;5042428;28;20336;-57
2022/04/14 04:01:32;;;;;;;3.23;2.00;;;9.30;99.90;;;;;;5044127;28;20209;-51
2022/04/14 04:04:17;;;;;;;4.23;2.80;;;9.30;99.90;;;;;;5043719;28;20194;-55
2022/04/14 04:07:01;;;;;;;7.03;2.43;;;9.30;99.90;;;;;;5043447;28;20261;-52
2022/04/14 04:09:46;;;;;;;2.23;1.90;;;9.20;99.90;;;;;;5043366;28;20257;-57
2022/04/14 04:12:31;;;;;;;2.13;2.03;;;9.20;99.90;;;;;;5042741;28;20191;-54
2022/04/14 04:15:15;;;;;;;2.40;1.97;;;9.10;99.90;;;;;;5042548;28;20281;-51
2022/04/14 04:17:59;;;;;;;2.13;1.70;;;9.10;99.90;;;;;;5044025;28;20284;-58
2022/04/14 04:20:44;;;;;;;2.90;2.00;;;9.20;99.90;;;;;;5042753;28;20198;-59
2022/04/14 04:27:09;;;;;;;4.60;2.47;;;9.10;99.90;;;;;;5044580;28;20236;-61
2022/04/14 04:29:53;;;;;;;2.13;1.93;;;9.10;99.90;;;;;;5043266;28;20214;-63
2022/04/14 04:32:39;;;;;;;2.90;2.40;;;9.10;99.90;;;;;;5042445;28;20249;-55
2022/04/14 04:35:23;;;;;;;2.10;1.90;;;9.10;99.90;;;;;;5044273;28;20205;-60
2022/04/14 04:38:07;;;;;;;2.80;2.47;;;9.10;99.90;;;;;;5042326;28;20268;-59
2022/04/14 04:40:51;;;;;;;2.20;2.13;;;9.20;99.90;;;;;;5042134;28;20206;-54
2022/04/14 04:43:36;;;;;;;3.80;2.13;;;9.10;99.90;;;;;;5041786;28;20274;-58
2022/04/14 04:46:21;;;;;;;3.27;1.83;;;9.10;99.90;;;;;;5040828;28;20240;-56
2022/04/14 04:49:05;;;;;;;3.10;1.83;;;9.00;99.90;;;;;;5039530;28;20190;-56
2022/04/14 04:51:49;;;;;;;2.40;2.20;;;9.00;99.90;;;;;;5039734;28;20230;-58
2022/04/14 04:54:34;;;;;;;6.80;1.93;;;9.00;99.90;;;;;;5039434;28;20252;-62
2022/04/14 04:57:18;;;;;;;3.10;2.27;;;9.00;99.90;;;;;;5041559;28;20242;-63
2022/04/14 05:00:04;;;;;;;3.17;2.50;;;9.00;99.90;;;;;;5037301;28;20194;-54
2022/04/14 05:02:49;;;;;;;3.07;2.47;;;9.00;99.90;;;;;;5041565;28;20202;-59
2022/04/14 05:05:33;;;;;;;4.70;2.33;;;9.00;99.90;;;;;;5043315;28;20244;-62
2022/04/14 05:08:18;;;;;;;2.67;2.10;;;9.00;99.90;;;;;;5039666;28;20194;-57
2022/04/14 05:11:03;;;;;;;2.30;2.10;;;9.10;99.90;;;;;;5040391;28;20206;-53
2022/04/14 05:13:47;;;;;;;3.00;2.20;;;9.10;99.90;;;;;;5041937;28;20201;-55
2022/04/14 05:16:31;;;;;;;5.97;2.70;;;9.10;99.90;;;;;;5040637;28;20257;-62
2022/04/14 05:19:15;;;;;;;2.47;2.13;;;9.10;99.90;;;;;;5038548;28;20256;-54
2022/04/14 05:22:01;;;;;;;2.10;1.90;;;9.20;99.90;;;;;;5038867;28;20202;-58
2022/04/14 05:24:46;;;;;;;3.00;2.40;;;9.20;99.90;;;;;;5038547;28;20241;-57
2022/04/14 05:27:30;;;;;;;3.30;2.10;;;9.30;99.90;;;;;;5041740;28;20230;-55
2022/04/14 05:30:14;;;;;;;2.73;2.53;;;9.30;99.90;;;;;;5038170;28;20193;-59
2022/04/14 05:32:59;;;;;;;2.50;2.30;;;9.30;99.90;;;;;;5040955;28;20274;-55
2022/04/14 05:35:45;;;;;;;2.70;2.40;;;9.30;99.90;;;;;;5024314;28;20260;-56
2022/04/14 05:38:29;;;;;;;3.33;2.50;;;9.50;99.90;;;;;;5040822;28;20207;-54
2022/04/14 05:41:14;;;;;;;3.07;2.40;;;9.50;99.90;;;;;;5029469;28;20194;-51
2022/04/14 05:43:59;;;;;;;5.30;2.80;;;9.60;99.90;;;;;;5031304;28;20198;-59
2022/04/14 05:46:43;;;;;;;3.43;2.83;;;9.60;99.90;;;;;;5027478;28;20258;-64
2022/04/14 05:49:27;;;;;;;5.03;2.67;;;9.70;99.90;;;;;;5034319;28;20241;-60
2022/04/14 05:52:11;;;;;;;3.30;2.37;;;9.70;99.90;;;;;;5031247;28;20351;-67
2022/04/14 05:54:58;;;;;;;2.80;2.23;;;9.80;99.90;;;;;;5027030;28;20195;-60
2022/04/14 05:57:42;;;;;;;4.10;2.17;;;9.90;99.90;;;;;;5026917;28;20700;-66
2022/04/14 06:00:26;;;;;;;2.70;2.50;;;9.90;99.90;;;;;;5032027;28;20255;-61
2022/04/14 06:03:11;;;;;;;9.93;2.63;;;9.90;99.90;;;;;;5026029;28;20206;-72
2022/04/14 06:05:56;;;;;;;3.30;2.60;;;9.90;99.90;;;;;;5030337;28;20276;-67
2022/04/14 06:08:41;;;;;;;2.40;2.20;;;10.10;99.90;;;;;;5033926;28;20226;-60
2022/04/14 06:11:26;;;;;;;2.77;2.40;;;10.20;99.90;;;;;;5035724;28;20256;-48
2022/04/14 06:14:11;;;;;;;5.23;2.17;;;10.30;99.90;;;;;;5034461;28;20206;-47
2022/04/14 06:16:55;;;;;;;3.13;2.10;;;10.30;99.90;;;;;;5024789;28;20234;-67
2022/04/14 06:19:40;;;;;;;2.13;2.03;;;10.40;99.90;;;;;;5033596;28;20193;-61
2022/04/14 06:22:24;;;;;;;2.80;2.50;;;10.50;99.90;;;;;;5036017;28;20194;-66
2022/04/14 06:25:13;;;;;;;2.80;2.60;;;10.50;99.90;;;;;;5030190;28;20282;-65
2022/04/14 06:27:58;;;;;;;5.13;2.67;;;10.60;99.90;;;;;;5034604;28;20195;-67
2022/04/14 06:30:42;;;;;;;2.87;2.30;;;10.70;99.90;;;;;;5034602;28;20278;-68
2022/04/14 06:33:30;;;;;;;5.50;2.70;;;10.90;99.90;;;;;;5034287;28;20190;-57
2022/04/14 06:36:14;;;;;;;6.60;3.00;;;10.90;99.90;;;;;;5030635;28;20284;-68
2022/04/14 06:38:59;;;;;;;5.97;3.27;;;11.00;99.90;;;;;;5038678;28;20198;-65
2022/04/14 06:41:43;;;;;;;3.67;3.00;;;11.10;99.90;;;;;;5032096;28;20223;-59
2022/04/14 06:44:28;;;;;;;2.90;2.60;;;11.20;99.90;;;;;;5034888;28;20199;-49
2022/04/14 06:47:13;;;;;;;5.43;3.17;;;11.30;99.90;;;;;;5025838;28;20195;-65
2022/04/14 06:49:57;;;;;;;2.40;2.20;;;11.30;99.90;;;;;;5027999;28;20230;-58
2022/04/14 06:52:41;;;;;;;2.43;2.23;;;11.40;99.90;;;;;;5029078;28;20195;-47
2022/04/14 06:55:26;;;;;;;5.23;2.57;;;11.60;99.90;;;;;;5036623;28;20248;-63
2022/04/14 06:58:11;;;;;;;3.20;2.63;;;11.70;99.90;;;;;;5034250;28;20234;-52
2022/04/14 07:00:55;;;;;;;2.87;2.67;;;11.80;99.90;;;;;;5034371;28;20198;-52
2022/04/14 07:03:39;;;;;;;4.23;2.70;;;11.90;99.90;;;;;;5033332;28;20239;-54
2022/04/14 07:06:24;;;;;;;8.80;3.97;;;12.00;99.90;;;;;;5033752;28;20202;-69
2022/04/14 07:09:08;;;;;;;5.30;2.93;;;12.20;99.90;;;;;;5031387;28;20201;-62
2022/04/14 07:11:53;;;;;;;6.33;3.10;;;12.40;99.90;;;;;;5038105;28;20266;-65
2022/04/14 07:14:39;;;;;;;3.27;2.97;;;12.50;99.90;;;;;;5032225;28;20194;-68
2022/04/14 07:17:24;;;;;;;2.70;2.50;;;12.70;99.90;;;;;;5035663;28;20320;-59
2022/04/14 07:20:09;;;;;;;3.97;2.50;;;12.80;99.90;;;;;;5039827;28;20267;-52
2022/04/14 07:22:54;;;;;;;2.70;2.50;;;12.70;99.90;;;;;;5032203;28;20257;-52
2022/04/14 07:25:38;;;;;;;2.80;2.60;;;12.90;99.90;;;;;;5029526;28;20229;-59
2022/04/14 07:28:22;;;;;;;5.23;3.33;;;13.00;99.90;;;;;;5026808;28;20198;-68
2022/04/14 07:31:07;;;;;;;3.10;2.90;;;13.20;99.90;;;;;;5036987;28;20295;-69
2022/04/14 07:33:51;;;;;;;2.80;2.00;;;13.40;99.90;;;;;;5026606;28;20206;-64
2022/04/14 07:36:36;;;;;;;3.77;2.20;;;13.70;99.90;;;;;;5030596;28;20285;-66
2022/04/14 07:39:21;;;;;;;5.77;2.87;;;13.90;99.90;;;;;;5033246;28;20246;-63
2022/04/14 07:42:05;;;;;;;2.80;2.60;;;14.30;99.90;;;;;;5034774;28;20193;-73
2022/04/14 07:44:49;;;;;;;2.30;2.20;;;14.40;99.90;;;;;;5032690;28;20202;-61
2022/04/14 07:47:33;;;;;;;2.77;2.33;;;14.70;99.90;;;;;;5025276;28;20206;-70
2022/04/14 07:50:20;;;;;;;2.10;1.90;;;15.00;99.90;;;;;;5037433;28;20272;-51
2022/04/14 07:53:04;;;;;;;2.57;2.37;;;15.40;99.90;;;;;;5034597;28;20247;-60
2022/04/14 07:55:49;;;;;;;3.90;1.90;;;15.50;99.90;;;;;;5030983;28;20237;-71
2022/04/14 07:58:38;;;;;;;2.20;2.10;;;15.70;99.90;;;;;;5036337;28;20202;-55
2022/04/14 08:01:22;;;;;;;2.33;2.23;;;15.90;99.90;;;;;;5028877;28;20195;-59
2022/04/14 08:04:07;;;;;;;2.47;2.37;;;16.20;99.90;;;;;;5032472;28;20223;-61
2022/04/14 08:06:52;;;;;;;2.43;2.33;;;16.10;99.90;;;;;;5029039;28;20190;-51
2022/04/14 08:09:36;;;;;;;1.67;1.63;;;16.00;99.90;;;;;;5034430;28;20270;-53
2022/04/14 08:12:21;;;;;;;2.47;2.23;;;16.30;99.90;;;;;;5032858;28;20233;-52
2022/04/14 08:15:07;;;;;;;2.03;1.90;;;16.50;99.90;;;;;;5035477;28;20256;-71
2022/04/14 08:17:51;;;;;;;4.13;2.70;;;17.00;99.70;;;;;;5033846;28;20270;-59
2022/04/14 08:20:40;;;;;;;5.27;2.50;;;17.10;99.30;;;;;;5030494;28;20280;-61
2022/04/14 08:23:25;;;;;;;2.83;2.40;;;17.40;98.80;;;;;;5034936;28;20288;-72
2022/04/14 08:26:11;;;;;;;3.63;2.50;;;17.80;98.00;;;;;;5021519;28;20217;-58
2022/04/14 08:28:56;;;;;;;2.13;2.03;;;18.00;97.10;;;;;;5036835;28;20222;-63
2022/04/14 08:31:40;;;;;;;2.70;2.50;;;18.40;96.70;;;;;;5033486;28;20297;-63
2022/04/14 08:34:25;;;;;;;3.90;2.58;;;18.60;96.00;;;;;;5039159;28;20190;-68
2022/04/14 08:37:09;;;;;;;2.45;2.20;;;19.20;94.70;;;;;;5031324;28;20274;-57
2022/04/14 08:39:53;;;;;;;4.63;2.40;;;19.30;94.30;;;;;;5029181;28;20202;-60
2022/04/14 08:42:51;;;;;;;3.92;2.78;;;19.90;94.20;;;;;;5032246;28;20323;-49
2022/04/14 08:45:56;;;;;;;3.00;2.00;;;20.00;92.80;;;;;;5031434;28;20226;-66
2022/04/14 08:48:43;;;;;;;2.40;2.20;;;20.20;92.50;;;;;;5033153;28;20194;-52
2022/04/14 08:51:36;;;;;;;3.08;2.13;;;20.00;92.70;;;;;;5035751;28;20218;-61
2022/04/14 08:54:22;;;;;;;3.90;2.67;;;20.20;92.50;;;;;;5035192;28;20208;-56
2022/04/14 08:57:06;;;;;;;5.57;2.03;;;19.90;92.70;;;;;;5029152;28;20314;-65
2022/04/14 08:59:51;;;;;;;2.65;2.00;;;20.30;92.10;;;;;;5022944;28;20284;-55
2022/04/14 09:02:36;;;;;;;2.88;2.55;;;20.80;91.90;;;;;;5035071;28;20198;-52
2022/04/14 09:05:20;;;;;;;2.25;2.08;;;20.30;91.80;;;;;;5034139;28;20209;-68
2022/04/14 09:08:05;;;;;;;2.67;2.47;;;20.70;91.60;;;;;;5031321;28;20249;-61
2022/04/14 09:10:50;;;;;;;3.17;2.90;;;20.50;91.50;;;;;;5032289;28;20190;-66
2022/04/14 09:13:37;;;;;;;2.50;2.40;;;20.50;91.80;;;;;;5032480;28;20198;-57
2022/04/14 09:16:22;;;;;;;2.50;2.30;;;20.70;91.40;;;;;;5028546;28;20190;-63
2022/04/14 09:19:06;;;;;;;4.65;2.10;;;21.10;91.00;;;;;;5018641;28;20202;-68
2022/04/14 09:22:02;;;;;;;2.47;2.22;;;21.30;90.80;;;;;;5031103;28;20242;-56
2022/04/14 09:24:52;;;;;;;5.57;2.85;;;21.40;90.50;;;;;;5026866;28;20206;-64
2022/04/14 09:27:37;;;;;;;2.60;2.38;;;21.70;90.50;;;;;;5030925;28;20261;-53
2022/04/14 09:30:22;;;;;;;3.00;2.50;;;21.70;89.30;;;;;;5029871;28;20184;-52
2022/04/14 09:33:15;;;;;;;2.78;2.33;;;21.50;90.10;;;;;;5032192;28;20219;-50
2022/04/14 09:36:10;;;;;;;2.80;2.38;;;21.90;89.10;;;;;;5028431;28;20230;-55
2022/04/14 09:39:07;;;;;;;2.10;2.00;;;22.10;88.20;;;;;;5034939;28;20238;-61
2022/04/14 09:41:52;;;;;;;2.88;2.67;;;22.60;87.80;;;;;;5037527;28;20193;-48
2022/04/14 09:44:36;;;;;;;2.80;2.40;;;23.30;86.30;;;;;;5033508;28;20194;-59
2022/04/14 09:47:38;;;;;;;2.80;2.17;;;23.50;84.50;;;;;;5034088;28;20505;-59
2022/04/14 09:50:35;;;;;;;2.60;2.40;;;23.80;83.80;;;;;;5034763;28;20225;-54
2022/04/14 09:53:20;;;;;;;3.75;2.30;;;23.50;83.20;;;;;;5032795;28;20190;-61
2022/04/14 09:56:05;;;;;;;3.45;2.70;;;24.00;83.40;;;;;;5029262;28;20263;-58
2022/04/14 09:58:49;;;;;;;2.88;2.45;;;24.40;81.10;;;;;;5040145;28;20198;-64
2022/04/14 10:01:34;;;;;;;6.93;2.47;;;24.70;80.70;;;;;;5039164;28;20194;-63
2022/04/14 10:04:36;;;;;;;3.42;2.20;;;25.20;79.30;;;;;;5029962;28;20217;-61
2022/04/14 10:07:21;;;;;;;2.40;2.20;;;24.90;78.80;;;;;;5029599;28;20286;-70
2022/04/14 10:10:21;;;;;;;2.53;2.22;;;25.10;78.40;;;;;;5036541;28;20195;-62
2022/04/14 10:13:07;;;;;;;2.22;2.05;;;24.60;79.60;;;;;;5035741;28;20222;-64
2022/04/14 10:15:54;;;;;;;2.63;2.20;;;24.30;80.50;;;;;;5032909;28;20198;-60
2022/04/14 10:18:39;;;;;;;2.42;2.25;;;23.70;81.30;;;;;;5032789;28;20215;-70
2022/04/14 10:21:23;;;;;;;14.35;7.88;;;24.10;80.50;;;;;;5034656;28;20202;-63
2022/04/14 10:24:09;;;;;;;5.75;3.33;;;23.80;81.80;;;;;;5031846;28;20276;-67
2022/04/14 10:26:54;;;;;;;2.35;2.15;;;23.60;82.00;;;;;;5033070;28;20230;-64
2022/04/14 10:29:40;;;;;;;9.05;5.03;;;24.20;81.20;;;;;;5035434;28;20191;-52
2022/04/14 10:32:25;;;;;;;5.68;4.65;;;24.90;79.30;;;;;;5029980;28;20194;-58
2022/04/14 10:35:10;;;;;;;6.60;4.63;;;24.60;79.10;;;;;;5028840;28;20183;-59
2022/04/14 10:38:04;;;;;;;2.90;2.70;;;25.20;78.70;;;;;;5039150;28;20226;-54
2022/04/14 10:40:54;;;;;;;10.82;7.38;;;25.00;79.10;;;;;;5030270;28;20283;-52
2022/04/14 10:43:41;;;;;;;2.50;2.40;;;24.30;80.80;;;;;;5028076;28;20194;-54
2022/04/14 10:46:40;;;;;;;2.97;2.78;;;25.80;78.20;;;;;;5037820;28;20218;-68
2022/04/14 10:49:26;;;;;;;3.88;2.03;;;26.90;75.60;;;;;;5030361;28;20194;-59
2022/04/14 10:52:24;;;;;;;2.90;2.63;;;27.00;75.80;;;;;;5035843;28;20220;-62
2022/04/14 10:55:08;;;;;;;3.25;2.90;;;27.30;72.80;;;;;;5034790;28;20202;-60
2022/04/14 10:57:53;;;;;;;3.05;2.85;;;27.30;73.90;;;;;;5031261;28;20222;-65
2022/04/14 11:00:37;;;;;;;2.55;2.45;;;26.70;74.80;;;;;;5035711;28;20295;-60
2022/04/14 11:03:46;;;;;;;7.38;5.60;;;26.60;74.30;;;;;;5041156;28;20194;-54
2022/04/14 11:06:45;;;;;;;2.97;2.78;;;26.90;74.10;;;;;;5027256;28;20197;-55
2022/04/14 11:09:38;;;;;;;3.17;2.88;;;27.30;72.60;;;;;;5029566;28;20279;-47
2022/04/14 11:12:38;;;;;;;2.58;2.38;;;26.10;74.30;;;;;;5025866;28;20195;-55
2022/04/14 11:15:31;;;;;;;2.28;2.17;;;26.70;74.90;;;;;;5042761;28;20245;-54
2022/04/14 11:18:16;;;;;;;3.65;2.17;;;27.70;72.90;;;;;;5045521;28;20364;-51
2022/04/14 11:21:01;;;;;;;2.60;2.17;;;28.10;70.70;;;;;;5046306;28;20333;-63
2022/04/14 11:23:52;;;;;;;2.50;2.30;;;29.50;70.10;;;;;;5046084;28;20217;-66
2022/04/14 11:26:37;;;;;;;4.15;2.92;;;30.10;67.60;;;;;;5045383;28;20194;-58
2022/04/14 11:29:32;;;;;;;2.83;2.50;;;28.20;69.40;;;;;;5045509;28;20229;-62
2022/04/14 11:32:39;;;;;;;2.63;2.53;;;27.60;70.30;;;;;;5045389;28;20193;-58
2022/04/14 11:35:30;;;;;;;3.25;2.38;;;27.80;70.60;;;;;;5046171;28;20339;-58
2022/04/14 11:38:52;;;;;;;1.92;1.83;;;29.50;67.70;;;;;;5046768;28;20230;-61
2022/04/14 11:41:46;;;;;;;13.45;10.40;;;28.00;69.00;;;;;;5045684;28;20197;-65
2022/04/14 11:44:32;;;;;;;2.65;2.45;;;29.30;66.50;;;;;;5044889;28;20198;-57
2022/04/14 11:47:18;;;;;;;4.50;3.45;;;30.00;65.20;;;;;;5045896;28;20194;-65
2022/04/14 11:50:02;;;;;;;2.97;2.00;;;29.30;65.70;;;;;;5045091;28;20238;-57
2022/04/14 11:52:47;;;;;;;1.98;1.80;;;30.00;64.60;;;;;;5045755;28;20226;-54
2022/04/14 11:55:41;;;;;;;1.65;1.50;;;31.10;63.30;;;;;;5049352;28;20242;-55
2022/04/14 11:58:25;;;;;;;1.63;1.58;;;31.40;61.80;;;;;;5046865;28;20284;-58
2022/04/14 12:01:11;;;;;;;1.80;1.70;;;31.20;61.60;;;;;;5048553;28;20337;-59
2022/04/14 12:03:55;;;;;;;1.90;1.80;;;30.40;61.70;;;;;;5047445;28;20206;-61
2022/04/14 12:06:50;;;;;;;2.33;2.13;;;29.30;62.90;;;;;;5046327;28;20238;-55
2022/04/14 12:09:37;;;;;;;2.72;1.70;;;29.40;63.40;;;;;;5047185;28;20202;-63
2022/04/14 12:12:24;;;;;;;1.75;1.63;;;31.10;61.20;;;;;;5046040;28;20213;-68
2022/04/14 12:15:09;;;;;;;1.90;1.85;;;31.50;59.60;;;;;;5046640;28;20194;-59
2022/04/14 12:18:07;;;;;;;1.85;1.77;;;31.50;58.50;;;;;;5046324;28;20250;-54
2022/04/14 12:20:51;;;;;;;1.45;1.45;;;30.00;60.30;;;;;;5045805;28;20206;-61
2022/04/14 12:23:45;;;;;;;1.63;1.60;;;29.70;61.50;;;;;;5044538;28;20189;-56
2022/04/14 12:26:30;;;;;;;1.50;1.50;;;30.60;60.40;;;;;;5045524;28;20202;-60
2022/04/14 12:29:14;;;;;;;1.40;1.30;;;31.60;59.30;;;;;;5044999;28;20210;-60
2022/04/14 12:35:41;;;;;;;1.60;1.60;;;33.10;56.40;;;;;;5044988;28;20236;-54
2022/04/14 12:38:26;;;;;;;1.40;1.40;;;32.60;55.00;;;;;;5044556;28;20230;-54
2022/04/14 12:41:17;;;;;;;1.20;1.20;;;31.90;56.60;;;;;;5043676;28;20268;-54
2022/04/14 12:44:01;;;;;;;1.55;1.45;;;32.10;56.10;;;;;;5044455;28;20195;-52
2022/04/14 12:46:51;;;;;;;1.33;1.33;;;32.80;55.20;;;;;;5043833;28;20209;-49
2022/04/14 12:49:35;;;;;;;1.30;1.30;;;33.60;53.30;;;;;;5043016;28;20210;-51
2022/04/14 12:52:19;;;;;;;1.30;1.30;;;31.80;53.30;;;;;;5044607;28;20268;-57
2022/04/14 12:55:05;;;;;;;2.15;1.30;;;31.70;53.70;;;;;;5043580;28;20217;-60
2022/04/14 12:57:52;;;;;;;1.30;1.30;;;31.50;52.40;;;;;;5043067;28;20297;-56
2022/04/14 13:00:36;;;;;;;3.10;1.17;;;32.00;53.40;;;;;;5044978;28;20198;-52
2022/04/14 13:03:21;;;;;;;1.48;1.38;;;34.00;51.90;;;;;;5043855;28;20202;-47
2022/04/14 13:06:15;;;;;;;1.15;1.15;;;34.10;50.40;;;;;;5043525;28;20279;-59
2022/04/14 13:09:13;;;;;;;1.88;1.42;;;34.20;50.60;;;;;;5044621;28;20194;-53
2022/04/14 13:11:58;;;;;;;1.02;1.00;;;34.60;50.10;;;;;;5043797;28;20212;-53
2022/04/14 13:14:47;;;;;;;1.58;1.48;;;34.60;49.50;;;;;;5043721;28;20193;-51
2022/04/14 13:17:36;;;;;;;1.20;1.20;;;34.80;49.10;;;;;;5044098;28;20302;-52
2022/04/14 13:20:31;;;;;;;1.13;1.10;;;33.50;50.50;;;;;;5044081;28;20201;-58
2022/04/14 13:23:18;;;;;;;1.20;1.20;;;34.70;49.50;;;;;;5043823;28;20186;-63
2022/04/14 13:26:03;;;;;;;2.05;1.10;;;34.30;49.70;;;;;;5044793;28;20189;-57
2022/04/14 13:28:47;;;;;;;1.30;1.17;;;34.40;49.40;;;;;;5043481;28;20209;-50
2022/04/14 13:31:31;;;;;;;0.80;0.80;;;33.10;49.60;;;;;;5043935;28;20233;-63
2022/04/14 13:34:16;;;;;;;1.27;1.27;;;33.40;49.70;;;;;;5043394;28;20194;-59
2022/04/14 13:37:00;;;;;;;1.00;1.00;;;33.00;49.50;;;;;;5042528;28;20265;-59
2022/04/14 13:39:44;;;;;;;2.78;1.10;;;32.20;50.70;;;;;;5043969;28;20190;-52
2022/04/14 13:42:30;;;;;;;1.75;1.23;;;30.60;52.50;;;;;;5042926;28;20277;-59
2022/04/14 13:45:14;;;;;;;1.38;1.05;;;31.00;52.30;;;;;;5043439;28;20202;-56
2022/04/14 13:47:58;;;;;;;1.30;1.30;;;32.30;51.00;;;;;;5043916;28;20257;-57
2022/04/14 13:50:45;;;;;;;1.90;1.10;;;34.20;50.30;;;;;;5042920;28;20226;-55
2022/04/14 13:53:29;;;;;;;1.20;1.20;;;31.90;51.50;;;;;;5042655;28;20202;-62
2022/04/14 13:56:13;;;;;;;1.35;1.17;;;33.70;50.90;;;;;;5043570;28;20198;-62
2022/04/14 13:58:58;;;;;;;1.10;1.10;;;34.50;48.30;;;;;;5042693;28;20290;-57
2022/04/14 14:01:43;;;;;;;1.05;1.05;;;34.10;49.80;;;;;;5043347;28;20351;-64
2022/04/14 14:04:27;;;;;;;0.93;0.93;;;33.50;49.30;;;;;;5043361;28;20274;-57
2022/04/14 14:07:11;;;;;;;1.08;0.90;;;35.10;48.40;;;;;;5042958;28;20197;-63
2022/04/14 14:09:56;;;;;;;0.95;0.95;;;36.00;47.60;;;;;;5043781;28;20197;-63
2022/04/14 14:12:40;;;;;;;1.55;0.98;;;36.70;46.70;;;;;;5042377;28;20198;-54
2022/04/14 14:15:25;;;;;;;0.90;0.90;;;37.40;45.50;;;;;;5043432;28;20205;-59
2022/04/14 14:18:09;;;;;;;0.93;0.93;;;37.10;45.20;;;;;;5044533;28;20228;-62
2022/04/14 14:20:53;;;;;;;0.95;0.95;;;36.90;45.20;;;;;;5042705;28;20226;-59
2022/04/14 14:23:38;;;;;;;1.25;1.25;;;36.90;45.40;;;;;;5042859;28;20263;-59
2022/04/14 14:26:22;;;;;;;0.90;0.90;;;36.50;45.60;;;;;;5043446;28;20194;-58
2022/04/14 14:29:07;;;;;;;1.10;1.10;;;37.10;45.20;;;;;;5045668;28;20190;-61
2022/04/14 14:31:51;;;;;;;1.10;1.10;;;35.60;45.50;;;;;;5046953;28;20197;-54
2022/04/14 14:34:36;;;;;;;1.10;1.10;;;34.90;46.30;;;;;;5046322;28;20201;-52